TFM - Tactical Decision Aid
ID: Runway Winds: CIG/VIS Threshold:

KATL - Atlanta/Hartsfield-J, GA, US

Updated at: 2249 UTC 23 Apr 2019
Latest TAF at: 2138 UTC 23 Apr 2019

TAF Board

Time2152Z 23/23Z 24/00Z 24/01Z 24/02Z 24/03Z 24/04Z 24/05Z 24/06Z 24/07Z 24/08Z 24/09Z 24/10Z 24/11Z>>
Type OBS PRVL PRVL PRVL PRVL PRVL PRVL PRVL PRVL PRVL PRVL PRVL PRVL PRVL
VIS 10 >6 >6 >6 >6 >6 >6 >6 >6 >6 >6 >6 >6 >6
CIG 250 -- -- -- -- -- -- 250 250 250 250 250 250 250
Cover BKN FEW FEW SCT SCT SCT SCT BKN BKN BKN BKN BKN BKN BKN
FltCat VFR VFR VFR VFR VFR VFR VFR VFR VFR VFR VFR VFR VFR VFR
WX -- -- -- -- -- -- -- -- -- -- -- -- -- --
WDir 260 260 260 250 250 250 250 260 260 260 260 260 260 260
WSpd 7 8 8 6 6 6 6 3 3 3 3 3 3 3
WGst -- -- -- -- -- -- -- -- -- -- -- -- -- --

TDA Impact Legend

  None Marginal Slight Moderate High
Visibility (sm) >5 3≤X≤5 1≤X<3 0.5≤X<1 <0.5
Ceiling (100 ft) >30 10≤X≤30 4≤X<10 2≤X<4 <2
Wind Speed (kt) <15 15≤X<25 25≤X<30 ≥30
Wind Gust (kt) <15 15≤X<25 25≤X<35 ≥35
Weather No Wx Reported VCTS -TS,-FZRA TS,FZRA +TS,+FZRA
TAF
KATL 232138Z 2322/2424 26008KT P6SM FEW250
  FM240100 25006KT P6SM SCT250
  FM240500 26003KT P6SM BKN250
  FM241400 28005KT P6SM FEW250
  FM241700 26007KT P6SM SKC


METAR
KATL 232152Z 26007KT 10SM BKN250 27/11 A3005 RMK AO2 SLP170 T02670111
KATL 232052Z 28009KT 10SM BKN250 27/11 A3006 RMK AO2 SLP173 T02720106 56020
KATL 231952Z 28007G16KT 10SM BKN250 28/12 A3008 RMK AO2 SLP177 T02780122

Radar Display
Forecast Discussion